sensor_id;sensor_type;location;lat;lon;timestamp;P1;durP1;ratioP1;P2;durP2;ratioP2
25107;SDS011;13090;53.422;7.670;2022-08-07T00:01:58;6.97;;;4.18;;
25107;SDS011;13090;53.422;7.670;2022-08-07T00:07:22;6.70;;;3.95;;
25107;SDS011;13090;53.422;7.670;2022-08-07T00:12:27;5.13;;;3.72;;
25107;SDS011;13090;53.422;7.670;2022-08-07T00:17:32;6.40;;;4.63;;
25107;SDS011;13090;53.422;7.670;2022-08-07T00:22:38;6.65;;;4.75;;
25107;SDS011;13090;53.422;7.670;2022-08-07T00:27:42;6.53;;;4.35;;
25107;SDS011;13090;53.422;7.670;2022-08-07T00:32:57;8.05;;;4.80;;
25107;SDS011;13090;53.422;7.670;2022-08-07T00:38:02;6.38;;;4.57;;
25107;SDS011;13090;53.422;7.670;2022-08-07T00:43:05;5.60;;;3.95;;
25107;SDS011;13090;53.422;7.670;2022-08-07T00:48:11;6.90;;;4.82;;
25107;SDS011;13090;53.422;7.670;2022-08-07T00:53:15;8.45;;;4.32;;
25107;SDS011;13090;53.422;7.670;2022-08-07T00:58:18;8.90;;;4.70;;
25107;SDS011;13090;53.422;7.670;2022-08-07T01:03:22;6.90;;;4.65;;
25107;SDS011;13090;53.422;7.670;2022-08-07T01:08:46;5.95;;;3.97;;
25107;SDS011;13090;53.422;7.670;2022-08-07T01:13:54;5.07;;;3.22;;
25107;SDS011;13090;53.422;7.670;2022-08-07T01:18:59;5.50;;;3.67;;
25107;SDS011;13090;53.422;7.670;2022-08-07T01:24:05;3.92;;;3.25;;
25107;SDS011;13090;53.422;7.670;2022-08-07T01:29:10;5.75;;;3.67;;
25107;SDS011;13090;53.422;7.670;2022-08-07T01:34:13;5.28;;;3.90;;
25107;SDS011;13090;53.422;7.670;2022-08-07T01:39:17;6.57;;;4.25;;
25107;SDS011;13090;53.422;7.670;2022-08-07T01:44:21;6.68;;;4.13;;
25107;SDS011;13090;53.422;7.670;2022-08-07T01:49:23;6.03;;;4.07;;
25107;SDS011;13090;53.422;7.670;2022-08-07T01:54:29;6.10;;;4.30;;
25107;SDS011;13090;53.422;7.670;2022-08-07T01:59:39;5.47;;;3.97;;
25107;SDS011;13090;53.422;7.670;2022-08-07T02:09:59;6.20;;;4.03;;
25107;SDS011;13090;53.422;7.670;2022-08-07T02:15:03;6.13;;;3.88;;
25107;SDS011;13090;53.422;7.670;2022-08-07T02:20:08;5.78;;;3.85;;
25107;SDS011;13090;53.422;7.670;2022-08-07T02:25:21;5.13;;;3.80;;
25107;SDS011;13090;53.422;7.670;2022-08-07T02:30:45;5.63;;;3.63;;
25107;SDS011;13090;53.422;7.670;2022-08-07T02:35:49;5.43;;;3.70;;
25107;SDS011;13090;53.422;7.670;2022-08-07T02:41:14;2.20;;;2.00;;
25107;SDS011;13090;53.422;7.670;2022-08-07T02:46:22;1.77;;;1.55;;
25107;SDS011;13090;53.422;7.670;2022-08-07T02:51:29;6.77;;;2.07;;
25107;SDS011;13090;53.422;7.670;2022-08-07T02:56:52;4.00;;;2.70;;
25107;SDS011;13090;53.422;7.670;2022-08-07T03:01:56;2.88;;;2.47;;
25107;SDS011;13090;53.422;7.670;2022-08-07T03:07:03;2.92;;;2.50;;
25107;SDS011;13090;53.422;7.670;2022-08-07T03:12:12;4.43;;;3.00;;
25107;SDS011;13090;53.422;7.670;2022-08-07T03:17:31;3.47;;;2.90;;
25107;SDS011;13090;53.422;7.670;2022-08-07T03:22:54;4.28;;;3.35;;
25107;SDS011;13090;53.422;7.670;2022-08-07T03:28:00;5.18;;;4.38;;
25107;SDS011;13090;53.422;7.670;2022-08-07T03:33:24;5.10;;;3.72;;
25107;SDS011;13090;53.422;7.670;2022-08-07T03:38:40;6.18;;;3.40;;
25107;SDS011;13090;53.422;7.670;2022-08-07T03:43:47;5.68;;;3.22;;
25107;SDS011;13090;53.422;7.670;2022-08-07T03:48:58;6.03;;;3.35;;
25107;SDS011;13090;53.422;7.670;2022-08-07T03:54:03;4.03;;;3.05;;
25107;SDS011;13090;53.422;7.670;2022-08-07T03:59:28;3.50;;;2.88;;
25107;SDS011;13090;53.422;7.670;2022-08-07T04:04:32;4.40;;;2.90;;
25107;SDS011;13090;53.422;7.670;2022-08-07T04:09:35;4.13;;;3.13;;
25107;SDS011;13090;53.422;7.670;2022-08-07T04:14:52;4.22;;;2.20;;
25107;SDS011;13090;53.422;7.670;2022-08-07T04:19:56;2.78;;;2.47;;
25107;SDS011;13090;53.422;7.670;2022-08-07T04:24:59;3.28;;;2.83;;
25107;SDS011;13090;53.422;7.670;2022-08-07T04:30:05;4.15;;;3.25;;
25107;SDS011;13090;53.422;7.670;2022-08-07T04:35:22;7.75;;;4.43;;
25107;SDS011;13090;53.422;7.670;2022-08-07T04:40:24;8.10;;;5.30;;
25107;SDS011;13090;53.422;7.670;2022-08-07T04:56:13;6.97;;;4.75;;
25107;SDS011;13090;53.422;7.670;2022-08-07T05:01:43;11.63;;;5.40;;
25107;SDS011;13090;53.422;7.670;2022-08-07T05:06:55;7.40;;;5.63;;
25107;SDS011;13090;53.422;7.670;2022-08-07T05:12:22;7.10;;;5.35;;
25107;SDS011;13090;53.422;7.670;2022-08-07T05:17:32;8.32;;;5.22;;
25107;SDS011;13090;53.422;7.670;2022-08-07T05:22:55;7.50;;;5.22;;
25107;SDS011;13090;53.422;7.670;2022-08-07T05:28:02;5.18;;;4.53;;
25107;SDS011;13090;53.422;7.670;2022-08-07T05:33:25;8.68;;;6.55;;
25107;SDS011;13090;53.422;7.670;2022-08-07T05:38:29;9.15;;;6.50;;
25107;SDS011;13090;53.422;7.670;2022-08-07T05:43:53;7.47;;;5.68;;
25107;SDS011;13090;53.422;7.670;2022-08-07T05:49:14;8.25;;;5.20;;
25107;SDS011;13090;53.422;7.670;2022-08-07T05:54:17;5.68;;;4.90;;
25107;SDS011;13090;53.422;7.670;2022-08-07T05:59:33;5.80;;;4.63;;
25107;SDS011;13090;53.422;7.670;2022-08-07T06:04:58;7.15;;;5.32;;
25107;SDS011;13090;53.422;7.670;2022-08-07T06:10:05;5.53;;;4.80;;
25107;SDS011;13090;53.422;7.670;2022-08-07T06:15:15;5.90;;;4.70;;
25107;SDS011;13090;53.422;7.670;2022-08-07T06:20:22;5.22;;;4.43;;
25107;SDS011;13090;53.422;7.670;2022-08-07T06:25:32;7.13;;;4.43;;
25107;SDS011;13090;53.422;7.670;2022-08-07T06:30:37;6.90;;;4.97;;
25107;SDS011;13090;53.422;7.670;2022-08-07T06:35:48;6.70;;;5.43;;
25107;SDS011;13090;53.422;7.670;2022-08-07T06:41:11;4.75;;;4.20;;
25107;SDS011;13090;53.422;7.670;2022-08-07T06:46:38;5.05;;;4.28;;
25107;SDS011;13090;53.422;7.670;2022-08-07T06:51:44;5.95;;;3.78;;
25107;SDS011;13090;53.422;7.670;2022-08-07T06:56:50;7.13;;;3.88;;
25107;SDS011;13090;53.422;7.670;2022-08-07T07:01:55;3.53;;;3.22;;
25107;SDS011;13090;53.422;7.670;2022-08-07T07:07:01;5.22;;;3.85;;
25107;SDS011;13090;53.422;7.670;2022-08-07T07:12:28;4.40;;;3.97;;
25107;SDS011;13090;53.422;7.670;2022-08-07T07:17:52;6.10;;;3.63;;
25107;SDS011;13090;53.422;7.670;2022-08-07T07:23:01;4.55;;;3.20;;
25107;SDS011;13090;53.422;7.670;2022-08-07T07:28:28;4.47;;;3.45;;
25107;SDS011;13090;53.422;7.670;2022-08-07T07:33:55;4.25;;;3.13;;
25107;SDS011;13090;53.422;7.670;2022-08-07T07:39:05;5.03;;;2.97;;
25107;SDS011;13090;53.422;7.670;2022-08-07T07:44:10;5.47;;;2.42;;
25107;SDS011;13090;53.422;7.670;2022-08-07T07:49:27;3.35;;;2.63;;
25107;SDS011;13090;53.422;7.670;2022-08-07T07:54:52;2.60;;;2.40;;
25107;SDS011;13090;53.422;7.670;2022-08-07T07:59:56;3.35;;;2.10;;
25107;SDS011;13090;53.422;7.670;2022-08-07T08:05:02;2.10;;;1.83;;
25107;SDS011;13090;53.422;7.670;2022-08-07T08:10:16;2.30;;;2.10;;
25107;SDS011;13090;53.422;7.670;2022-08-07T08:15:39;2.35;;;1.80;;
25107;SDS011;13090;53.422;7.670;2022-08-07T08:21:00;2.25;;;1.70;;
25107;SDS011;13090;53.422;7.670;2022-08-07T08:26:05;2.17;;;1.98;;
25107;SDS011;13090;53.422;7.670;2022-08-07T08:31:09;3.15;;;1.85;;
25107;SDS011;13090;53.422;7.670;2022-08-07T08:36:30;2.45;;;1.90;;
25107;SDS011;13090;53.422;7.670;2022-08-07T08:41:45;2.08;;;1.88;;
25107;SDS011;13090;53.422;7.670;2022-08-07T08:47:02;1.93;;;1.60;;
25107;SDS011;13090;53.422;7.670;2022-08-07T08:52:11;1.63;;;1.52;;
25107;SDS011;13090;53.422;7.670;2022-08-07T08:57:23;2.75;;;1.20;;
25107;SDS011;13090;53.422;7.670;2022-08-07T09:02:37;2.43;;;1.40;;
25107;SDS011;13090;53.422;7.670;2022-08-07T09:07:56;1.35;;;1.10;;
25107;SDS011;13090;53.422;7.670;2022-08-07T09:13:08;2.08;;;1.40;;
25107;SDS011;13090;53.422;7.670;2022-08-07T09:18:18;1.75;;;1.48;;
25107;SDS011;13090;53.422;7.670;2022-08-07T09:23:41;1.50;;;1.40;;
25107;SDS011;13090;53.422;7.670;2022-08-07T09:29:19;2.60;;;1.23;;
25107;SDS011;13090;53.422;7.670;2022-08-07T09:34:49;3.15;;;1.40;;
25107;SDS011;13090;53.422;7.670;2022-08-07T09:40:08;1.52;;;1.10;;
25107;SDS011;13090;53.422;7.670;2022-08-07T09:45:22;1.30;;;1.20;;
25107;SDS011;13090;53.422;7.670;2022-08-07T09:51:11;3.22;;;1.50;;
25107;SDS011;13090;53.422;7.670;2022-08-07T10:09:03;3.10;;;2.58;;
25107;SDS011;13090;53.422;7.670;2022-08-07T10:14:21;2.22;;;1.17;;
25107;SDS011;13090;53.422;7.670;2022-08-07T10:19:48;1.40;;;1.30;;
25107;SDS011;13090;53.422;7.670;2022-08-07T10:25:11;2.38;;;1.20;;
25107;SDS011;13090;53.422;7.670;2022-08-07T10:30:25;2.63;;;1.83;;
25107;SDS011;13090;53.422;7.670;2022-08-07T10:35:46;1.20;;;1.10;;
25107;SDS011;13090;53.422;7.670;2022-08-07T10:41:15;1.77;;;1.27;;
25107;SDS011;13090;53.422;7.670;2022-08-07T10:46:53;1.85;;;1.20;;
25107;SDS011;13090;53.422;7.670;2022-08-07T10:52:04;2.05;;;1.20;;
25107;SDS011;13090;53.422;7.670;2022-08-07T10:57:17;2.00;;;1.25;;
25107;SDS011;13090;53.422;7.670;2022-08-07T11:02:38;1.23;;;1.13;;
25107;SDS011;13090;53.422;7.670;2022-08-07T11:07:56;2.05;;;1.30;;
25107;SDS011;13090;53.422;7.670;2022-08-07T11:13:07;2.85;;;1.20;;
25107;SDS011;13090;53.422;7.670;2022-08-07T11:18:38;1.80;;;1.40;;
25107;SDS011;13090;53.422;7.670;2022-08-07T11:23:56;1.25;;;1.15;;
25107;SDS011;13090;53.422;7.670;2022-08-07T11:29:05;1.77;;;1.30;;
25107;SDS011;13090;53.422;7.670;2022-08-07T11:34:33;2.05;;;1.40;;
25107;SDS011;13090;53.422;7.670;2022-08-07T11:39:49;1.77;;;1.27;;
25107;SDS011;13090;53.422;7.670;2022-08-07T11:45:09;1.40;;;1.30;;
25107;SDS011;13090;53.422;7.670;2022-08-07T11:50:25;1.45;;;1.13;;
25107;SDS011;13090;53.422;7.670;2022-08-07T11:55:42;1.30;;;1.20;;
25107;SDS011;13090;53.422;7.670;2022-08-07T12:01:26;1.92;;;1.00;;
25107;SDS011;13090;53.422;7.670;2022-08-07T12:07:00;1.65;;;0.90;;
25107;SDS011;13090;53.422;7.670;2022-08-07T12:12:24;1.27;;;1.10;;
25107;SDS011;13090;53.422;7.670;2022-08-07T12:17:38;1.35;;;1.08;;
25107;SDS011;13090;53.422;7.670;2022-08-07T12:23:08;0.88;;;0.88;;
25107;SDS011;13090;53.422;7.670;2022-08-07T12:28:40;1.90;;;1.17;;
25107;SDS011;13090;53.422;7.670;2022-08-07T12:33:53;2.35;;;1.25;;
25107;SDS011;13090;53.422;7.670;2022-08-07T12:39:04;1.60;;;1.50;;
25107;SDS011;13090;53.422;7.670;2022-08-07T12:44:29;1.60;;;1.20;;
25107;SDS011;13090;53.422;7.670;2022-08-07T12:49:34;3.08;;;1.42;;
25107;SDS011;13090;53.422;7.670;2022-08-07T12:54:58;2.10;;;1.33;;
25107;SDS011;13090;53.422;7.670;2022-08-07T13:00:11;1.90;;;1.20;;
25107;SDS011;13090;53.422;7.670;2022-08-07T13:05:37;1.85;;;1.40;;
25107;SDS011;13090;53.422;7.670;2022-08-07T13:11:07;1.20;;;1.10;;
25107;SDS011;13090;53.422;7.670;2022-08-07T13:16:28;3.92;;;1.50;;
25107;SDS011;13090;53.422;7.670;2022-08-07T13:21:39;1.40;;;1.30;;
25107;SDS011;13090;53.422;7.670;2022-08-07T13:27:03;1.98;;;1.20;;
25107;SDS011;13090;53.422;7.670;2022-08-07T13:32:15;1.17;;;1.02;;
25107;SDS011;13090;53.422;7.670;2022-08-07T13:37:40;1.70;;;1.10;;
25107;SDS011;13090;53.422;7.670;2022-08-07T13:43:00;1.02;;;1.00;;
25107;SDS011;13090;53.422;7.670;2022-08-07T13:48:14;1.20;;;1.10;;
25107;SDS011;13090;53.422;7.670;2022-08-07T13:53:37;1.10;;;1.00;;
25107;SDS011;13090;53.422;7.670;2022-08-07T13:59:01;1.88;;;1.33;;
25107;SDS011;13090;53.422;7.670;2022-08-07T14:04:15;1.77;;;1.20;;
25107;SDS011;13090;53.422;7.670;2022-08-07T14:09:22;2.00;;;1.40;;
25107;SDS011;13090;53.422;7.670;2022-08-07T14:14:50;2.22;;;1.50;;
25107;SDS011;13090;53.422;7.670;2022-08-07T14:19:59;2.83;;;1.20;;
25107;SDS011;13090;53.422;7.670;2022-08-07T14:25:29;2.00;;;1.50;;
25107;SDS011;13090;53.422;7.670;2022-08-07T14:30:46;3.17;;;1.40;;
25107;SDS011;13090;53.422;7.670;2022-08-07T14:35:55;1.55;;;1.45;;
25107;SDS011;13090;53.422;7.670;2022-08-07T14:41:00;3.17;;;1.30;;
25107;SDS011;13090;53.422;7.670;2022-08-07T14:46:12;3.08;;;1.20;;
25107;SDS011;13090;53.422;7.670;2022-08-07T14:51:32;2.13;;;1.40;;
25107;SDS011;13090;53.422;7.670;2022-08-07T14:56:56;1.42;;;1.15;;
25107;SDS011;13090;53.422;7.670;2022-08-07T15:02:08;2.28;;;1.40;;
25107;SDS011;13090;53.422;7.670;2022-08-07T15:07:33;3.45;;;1.25;;
25107;SDS011;13090;53.422;7.670;2022-08-07T15:12:53;1.58;;;1.13;;
25107;SDS011;13090;53.422;7.670;2022-08-07T15:18:00;1.85;;;1.33;;
25107;SDS011;13090;53.422;7.670;2022-08-07T15:23:21;1.63;;;1.52;;
25107;SDS011;13090;53.422;7.670;2022-08-07T15:28:54;1.48;;;1.27;;
25107;SDS011;13090;53.422;7.670;2022-08-07T15:34:19;1.98;;;1.60;;
25107;SDS011;13090;53.422;7.670;2022-08-07T15:39:53;1.77;;;1.55;;
25107;SDS011;13090;53.422;7.670;2022-08-07T15:44:59;1.67;;;1.25;;
25107;SDS011;13090;53.422;7.670;2022-08-07T15:50:10;2.45;;;1.40;;
25107;SDS011;13090;53.422;7.670;2022-08-07T15:55:37;1.60;;;1.50;;
25107;SDS011;13090;53.422;7.670;2022-08-07T16:01:04;1.50;;;1.40;;
25107;SDS011;13090;53.422;7.670;2022-08-07T16:06:25;1.30;;;1.20;;
25107;SDS011;13090;53.422;7.670;2022-08-07T16:11:53;1.98;;;1.33;;
25107;SDS011;13090;53.422;7.670;2022-08-07T16:17:09;2.85;;;1.45;;
25107;SDS011;13090;53.422;7.670;2022-08-07T16:28:51;3.65;;;2.03;;
25107;SDS011;13090;53.422;7.670;2022-08-07T16:34:21;1.92;;;1.35;;
25107;SDS011;13090;53.422;7.670;2022-08-07T16:39:46;2.95;;;1.38;;
25107;SDS011;13090;53.422;7.670;2022-08-07T16:45:21;1.65;;;1.40;;
25107;SDS011;13090;53.422;7.670;2022-08-07T16:51:08;1.35;;;1.25;;
25107;SDS011;13090;53.422;7.670;2022-08-07T16:56:43;1.70;;;1.10;;
25107;SDS011;13090;53.422;7.670;2022-08-07T17:01:58;2.22;;;1.05;;
25107;SDS011;13090;53.422;7.670;2022-08-07T17:07:10;1.30;;;1.10;;
25107;SDS011;13090;53.422;7.670;2022-08-07T17:12:40;1.15;;;1.05;;
25107;SDS011;13090;53.422;7.670;2022-08-07T17:17:56;1.95;;;1.42;;
25107;SDS011;13090;53.422;7.670;2022-08-07T17:23:30;2.67;;;1.20;;
25107;SDS011;13090;53.422;7.670;2022-08-07T17:28:44;1.55;;;1.00;;
25107;SDS011;13090;53.422;7.670;2022-08-07T17:34:10;9.93;;;1.17;;
25107;SDS011;13090;53.422;7.670;2022-08-07T17:39:39;1.00;;;0.90;;
25107;SDS011;13090;53.422;7.670;2022-08-07T17:45:08;1.17;;;1.00;;
25107;SDS011;13090;53.422;7.670;2022-08-07T17:50:17;2.88;;;1.30;;
25107;SDS011;13090;53.422;7.670;2022-08-07T17:55:33;2.28;;;2.05;;
25107;SDS011;13090;53.422;7.670;2022-08-07T18:01:01;2.13;;;1.20;;
25107;SDS011;13090;53.422;7.670;2022-08-07T18:06:26;4.40;;;2.67;;
25107;SDS011;13090;53.422;7.670;2022-08-07T18:11:41;6.35;;;4.63;;
25107;SDS011;13090;53.422;7.670;2022-08-07T18:17:22;2.20;;;1.98;;
25107;SDS011;13090;53.422;7.670;2022-08-07T18:22:56;4.18;;;1.52;;
25107;SDS011;13090;53.422;7.670;2022-08-07T18:28:08;5.15;;;1.58;;
25107;SDS011;13090;53.422;7.670;2022-08-07T18:33:41;4.38;;;2.10;;
25107;SDS011;13090;53.422;7.670;2022-08-07T18:39:05;2.85;;;1.50;;
25107;SDS011;13090;53.422;7.670;2022-08-07T18:44:48;5.32;;;2.38;;
25107;SDS011;13090;53.422;7.670;2022-08-07T18:50:44;2.25;;;1.50;;
25107;SDS011;13090;53.422;7.670;2022-08-07T18:56:06;3.45;;;1.70;;
25107;SDS011;13090;53.422;7.670;2022-08-07T19:01:19;2.13;;;1.60;;
25107;SDS011;13090;53.422;7.670;2022-08-07T19:12:04;3.58;;;1.60;;
25107;SDS011;13090;53.422;7.670;2022-08-07T19:17:16;2.08;;;1.55;;
25107;SDS011;13090;53.422;7.670;2022-08-07T19:22:53;3.17;;;1.58;;
25107;SDS011;13090;53.422;7.670;2022-08-07T19:28:24;4.32;;;1.63;;
25107;SDS011;13090;53.422;7.670;2022-08-07T19:33:48;2.00;;;1.80;;
25107;SDS011;13090;53.422;7.670;2022-08-07T19:38:59;4.80;;;1.50;;
25107;SDS011;13090;53.422;7.670;2022-08-07T19:44:12;3.95;;;1.58;;
25107;SDS011;13090;53.422;7.670;2022-08-07T19:49:22;1.88;;;1.50;;
25107;SDS011;13090;53.422;7.670;2022-08-07T19:54:47;3.38;;;1.90;;
25107;SDS011;13090;53.422;7.670;2022-08-07T20:00:00;2.22;;;1.67;;
25107;SDS011;13090;53.422;7.670;2022-08-07T20:05:11;4.50;;;1.85;;
25107;SDS011;13090;53.422;7.670;2022-08-07T20:10:24;4.20;;;1.60;;
25107;SDS011;13090;53.422;7.670;2022-08-07T20:15:52;3.50;;;1.75;;
25107;SDS011;13090;53.422;7.670;2022-08-07T20:20:58;2.03;;;1.65;;
25107;SDS011;13090;53.422;7.670;2022-08-07T20:26:03;2.17;;;1.40;;
25107;SDS011;13090;53.422;7.670;2022-08-07T20:31:13;3.78;;;1.70;;
25107;SDS011;13090;53.422;7.670;2022-08-07T20:36:24;2.83;;;1.67;;
25107;SDS011;13090;53.422;7.670;2022-08-07T20:41:30;8.13;;;1.83;;
25107;SDS011;13090;53.422;7.670;2022-08-07T20:46:43;2.33;;;1.50;;
25107;SDS011;13090;53.422;7.670;2022-08-07T20:52:05;5.85;;;2.00;;
25107;SDS011;13090;53.422;7.670;2022-08-07T20:57:18;3.35;;;1.60;;
25107;SDS011;13090;53.422;7.670;2022-08-07T21:02:26;1.90;;;1.65;;
25107;SDS011;13090;53.422;7.670;2022-08-07T21:07:31;2.58;;;1.70;;
25107;SDS011;13090;53.422;7.670;2022-08-07T21:12:35;11.13;;;2.17;;
25107;SDS011;13090;53.422;7.670;2022-08-07T21:17:43;5.10;;;1.90;;
25107;SDS011;13090;53.422;7.670;2022-08-07T21:23:12;3.20;;;1.77;;
25107;SDS011;13090;53.422;7.670;2022-08-07T21:33:53;5.70;;;2.40;;
25107;SDS011;13090;53.422;7.670;2022-08-07T21:39:12;2.03;;;1.70;;
25107;SDS011;13090;53.422;7.670;2022-08-07T21:44:42;4.22;;;1.83;;
25107;SDS011;13090;53.422;7.670;2022-08-07T21:49:55;2.10;;;1.73;;
25107;SDS011;13090;53.422;7.670;2022-08-07T21:55:07;3.97;;;2.05;;
25107;SDS011;13090;53.422;7.670;2022-08-07T22:00:28;2.08;;;1.70;;
25107;SDS011;13090;53.422;7.670;2022-08-07T22:05:38;2.03;;;1.73;;
25107;SDS011;13090;53.422;7.670;2022-08-07T22:10:51;2.75;;;1.83;;
25107;SDS011;13090;53.422;7.670;2022-08-07T22:15:58;1.83;;;1.55;;
25107;SDS011;13090;53.422;7.670;2022-08-07T22:21:27;4.43;;;2.03;;
25107;SDS011;13090;53.422;7.670;2022-08-07T22:27:01;3.92;;;1.60;;
25107;SDS011;13090;53.422;7.670;2022-08-07T22:32:10;3.55;;;1.83;;
25107;SDS011;13090;53.422;7.670;2022-08-07T22:37:39;3.22;;;1.80;;
25107;SDS011;13090;53.422;7.670;2022-08-07T22:43:07;5.47;;;2.42;;
25107;SDS011;13090;53.422;7.670;2022-08-07T22:53:47;3.22;;;1.73;;
25107;SDS011;13090;53.422;7.670;2022-08-07T22:59:16;5.68;;;1.80;;
25107;SDS011;13090;53.422;7.670;2022-08-07T23:10:18;1.70;;;1.37;;
25107;SDS011;13090;53.422;7.670;2022-08-07T23:21:13;1.80;;;1.63;;
25107;SDS011;13090;53.422;7.670;2022-08-07T23:26:48;4.32;;;1.80;;
25107;SDS011;13090;53.422;7.670;2022-08-07T23:32:04;2.20;;;2.00;;
25107;SDS011;13090;53.422;7.670;2022-08-07T23:37:36;1.92;;;1.38;;
25107;SDS011;13090;53.422;7.670;2022-08-07T23:43:15;1.70;;;1.20;;
25107;SDS011;13090;53.422;7.670;2022-08-07T23:48:55;3.67;;;1.77;;
25107;SDS011;13090;53.422;7.670;2022-08-07T23:54:52;1.48;;;1.20;;
